createdAt,value
2018-06-03T00:01:32.792Z,15.20
2018-06-03T00:04:00.431Z,15.20
2018-06-03T00:06:28.126Z,15.20
2018-06-03T00:08:55.773Z,15.10
2018-06-03T00:11:23.470Z,15.10
2018-06-03T00:13:51.145Z,15.10
2018-06-03T00:16:18.811Z,15.10
2018-06-03T00:18:47.026Z,15.00
2018-06-03T00:21:35.332Z,15.00
2018-06-03T00:24:03.017Z,15.00
2018-06-03T00:26:30.703Z,15.00
2018-06-03T00:28:58.337Z,14.90
2018-06-03T00:31:26.016Z,14.90
2018-06-03T00:33:53.663Z,14.80
2018-06-03T00:36:33.225Z,14.80
2018-06-03T00:39:00.867Z,14.80
2018-06-03T00:41:28.552Z,14.70
2018-06-03T00:43:56.186Z,14.70
2018-06-03T00:46:23.836Z,14.80
2018-06-03T00:48:51.504Z,14.80
2018-06-03T00:51:19.147Z,14.80
2018-06-03T00:53:47.590Z,14.80
2018-06-03T00:56:27.026Z,14.80
2018-06-03T00:58:54.703Z,14.80
2018-06-03T01:01:23.106Z,14.70
2018-06-03T01:03:50.754Z,14.70
2018-06-03T01:06:19.191Z,14.80
2018-06-03T01:08:46.843Z,14.70
2018-06-03T01:11:14.522Z,14.80
2018-06-03T01:13:42.155Z,14.80
2018-06-03T01:16:09.828Z,14.90
2018-06-03T01:18:37.458Z,15.00
2018-06-03T01:21:05.141Z,15.00
2018-06-03T01:23:32.790Z,15.10
2018-06-03T01:26:00.489Z,15.00
2018-06-03T01:28:28.124Z,15.00
2018-06-03T01:30:55.800Z,15.00
2018-06-03T01:33:23.441Z,15.00
2018-06-03T01:35:51.081Z,15.00
2018-06-03T01:38:18.774Z,15.00
2018-06-03T01:40:46.433Z,15.00
2018-06-03T01:43:14.097Z,15.10
2018-06-03T01:45:42.323Z,15.00
2018-06-03T01:48:10.016Z,15.00
2018-06-03T01:50:37.706Z,15.00
2018-06-03T01:53:05.427Z,15.00
2018-06-03T01:55:33.076Z,14.90
2018-06-03T01:58:01.506Z,14.90
2018-06-03T02:00:29.138Z,14.90
2018-06-03T02:02:56.812Z,14.90
2018-06-03T02:05:24.464Z,14.90
2018-06-03T02:07:52.149Z,14.90
2018-06-03T02:10:19.805Z,14.90
2018-06-03T02:12:47.468Z,14.90
2018-06-03T02:15:15.111Z,14.90
2018-06-03T02:17:42.785Z,14.80
2018-06-03T02:20:10.443Z,14.80
2018-06-03T02:22:38.095Z,14.70
2018-06-03T02:25:05.761Z,14.60
2018-06-03T02:27:34.362Z,14.50
2018-06-03T02:30:10.348Z,14.50
2018-06-03T02:32:38.003Z,14.50
2018-06-03T02:35:05.700Z,14.50
2018-06-03T02:37:33.363Z,14.50
2018-06-03T02:40:00.999Z,14.40
2018-06-03T02:42:28.663Z,14.30
2018-06-03T02:44:56.333Z,14.30
2018-06-03T02:47:23.965Z,14.30
2018-06-03T02:49:51.601Z,14.30
2018-06-03T02:52:19.272Z,14.30
2018-06-03T02:54:47.678Z,14.30
2018-06-03T02:57:15.383Z,14.30
2018-06-03T02:59:43.027Z,14.30
2018-06-03T03:02:10.694Z,14.30
2018-06-03T03:04:38.335Z,14.30
2018-06-03T03:07:06.014Z,14.20
2018-06-03T03:09:33.689Z,14.10
2018-06-03T03:12:01.365Z,14.10
2018-06-03T03:14:29.779Z,13.90
2018-06-03T03:16:57.449Z,13.90
2018-06-03T03:19:25.095Z,13.90
2018-06-03T03:21:53.521Z,14.00
2018-06-03T03:24:21.174Z,14.00
2018-06-03T03:26:48.848Z,13.90
2018-06-03T03:29:16.503Z,13.90
2018-06-03T03:31:44.231Z,13.80
2018-06-03T03:34:11.888Z,13.70
2018-06-03T03:36:39.562Z,13.70
2018-06-03T03:39:07.197Z,13.60
2018-06-03T03:41:34.901Z,13.60
2018-06-03T03:44:02.598Z,13.60
2018-06-03T03:46:30.268Z,13.60
2018-06-03T03:48:57.901Z,13.60
2018-06-03T03:51:26.342Z,13.50
2018-06-03T03:53:54.009Z,13.50
2018-06-03T03:56:21.667Z,13.60
2018-06-03T03:58:49.361Z,13.60
2018-06-03T04:01:17.783Z,13.70
2018-06-03T04:03:45.451Z,13.70
2018-06-03T04:06:13.089Z,13.80
2018-06-03T04:08:40.762Z,13.80
2018-06-03T04:11:08.392Z,13.80
2018-06-03T04:13:37.363Z,13.90
2018-06-03T04:16:05.770Z,14.00
2018-06-03T04:18:33.435Z,14.00
2018-06-03T04:21:01.072Z,14.00
2018-06-03T04:23:29.503Z,14.10
2018-06-03T04:25:57.157Z,14.10
2018-06-03T04:28:24.821Z,14.20
2018-06-03T04:30:52.463Z,14.30
2018-06-03T04:33:20.127Z,14.40
2018-06-03T04:35:47.763Z,14.60
2018-06-03T04:38:15.447Z,14.70
2018-06-03T04:40:43.107Z,14.80
2018-06-03T04:43:10.784Z,14.90
2018-06-03T04:45:38.431Z,15.00
2018-06-03T04:48:06.104Z,15.10
2018-06-03T04:50:33.737Z,15.20
2018-06-03T04:53:01.423Z,15.30
2018-06-03T04:55:29.055Z,15.40
2018-06-03T04:57:56.737Z,15.50
2018-06-03T05:00:24.367Z,15.60
2018-06-03T05:02:52.044Z,15.70
2018-06-03T05:05:19.688Z,15.90
2018-06-03T05:07:47.373Z,16.00
2018-06-03T05:10:15.044Z,16.20
2018-06-03T05:12:42.684Z,16.30
2018-06-03T05:15:10.407Z,16.40
2018-06-03T05:17:38.844Z,16.80
2018-06-03T05:20:06.540Z,16.80
2018-06-03T05:22:34.179Z,17.00
2018-06-03T05:25:01.847Z,17.30
2018-06-03T05:27:29.496Z,17.60
2018-06-03T05:29:57.164Z,17.80
2018-06-03T05:32:24.841Z,18.00
2018-06-03T05:34:52.523Z,18.00
2018-06-03T05:37:20.927Z,18.10
2018-06-03T05:39:48.591Z,18.10
2018-06-03T05:42:16.244Z,18.20
2018-06-03T05:44:43.921Z,18.20
2018-06-03T05:47:11.617Z,18.40
2018-06-03T05:49:39.267Z,18.50
2018-06-03T05:52:06.939Z,18.70
2018-06-03T05:54:34.583Z,19.00
2018-06-03T05:57:02.259Z,19.10
2018-06-03T05:59:29.895Z,19.30
2018-06-03T06:01:58.395Z,19.40
2018-06-03T06:04:26.049Z,19.40
2018-06-03T06:06:53.724Z,19.40
2018-06-03T06:09:21.354Z,19.50
2018-06-03T06:11:49.024Z,19.60
2018-06-03T06:14:16.669Z,19.80
2018-06-03T06:16:44.352Z,20.10
2018-06-03T06:19:12.017Z,20.50
2018-06-03T06:21:39.653Z,20.60
2018-06-03T06:24:07.333Z,20.80
2018-06-03T06:26:34.976Z,20.90
2018-06-03T06:29:02.686Z,21.10
2018-06-03T06:31:31.104Z,21.30
2018-06-03T06:33:58.766Z,21.30
2018-06-03T06:36:26.495Z,21.40
2018-06-03T06:38:54.139Z,21.50
2018-06-03T06:41:22.599Z,21.80
2018-06-03T06:43:50.230Z,21.80
2018-06-03T06:46:17.905Z,22.00
2018-06-03T06:48:45.558Z,22.30
2018-06-03T06:51:13.251Z,22.30
2018-06-03T06:53:41.692Z,22.30
2018-06-03T06:56:09.335Z,22.30
2018-06-03T06:58:37.019Z,22.20
2018-06-03T07:01:04.661Z,22.30
2018-06-03T07:03:32.334Z,22.40
2018-06-03T07:05:59.976Z,22.50
2018-06-03T07:08:27.660Z,22.60
2018-06-03T07:10:55.324Z,22.90
2018-06-03T07:13:22.972Z,22.90
2018-06-03T07:15:50.635Z,23.10
2018-06-03T07:18:18.298Z,23.20
2018-06-03T07:20:45.967Z,23.40
2018-06-03T07:23:13.590Z,23.40
2018-06-03T07:25:42.111Z,23.60
2018-06-03T07:28:09.793Z,23.70
2018-06-03T07:30:37.452Z,24.00
2018-06-03T07:33:05.901Z,24.00
2018-06-03T07:35:33.546Z,24.00
2018-06-03T07:38:01.227Z,24.00
2018-06-03T07:40:28.880Z,24.00
2018-06-03T07:42:56.550Z,23.70
2018-06-03T07:45:24.211Z,23.90
2018-06-03T07:47:51.885Z,24.00
2018-06-03T07:50:19.557Z,23.90
2018-06-03T07:52:48.018Z,23.90
2018-06-03T07:55:15.670Z,23.90
2018-06-03T07:57:43.393Z,24.10
2018-06-03T08:00:11.115Z,24.30
2018-06-03T08:02:38.790Z,24.20
2018-06-03T08:05:07.244Z,24.30
2018-06-03T08:07:34.910Z,24.30
2018-06-03T08:10:02.573Z,24.40
2018-06-03T08:12:31.027Z,24.50
2018-06-03T08:14:58.673Z,24.50
2018-06-03T08:17:26.344Z,24.60
2018-06-03T08:19:53.979Z,24.90
2018-06-03T08:22:21.656Z,24.60
2018-06-03T08:24:49.331Z,24.30
2018-06-03T08:27:16.991Z,24.40
2018-06-03T08:29:44.691Z,24.30
2018-06-03T08:32:12.329Z,24.30
2018-06-03T08:34:40.004Z,24.70
2018-06-03T08:37:08.429Z,25.20
2018-06-03T08:39:36.109Z,25.20
2018-06-03T08:42:03.739Z,25.30
2018-06-03T08:44:31.460Z,25.00
2018-06-03T08:46:59.888Z,25.30
2018-06-03T08:49:27.559Z,25.30
2018-06-03T08:51:55.206Z,25.40
2018-06-03T08:54:22.869Z,25.40
2018-06-03T08:56:50.512Z,25.50
2018-06-03T08:59:18.195Z,25.40
2018-06-03T09:01:45.827Z,25.70
2018-06-03T09:04:13.519Z,25.50
2018-06-03T09:06:41.197Z,25.80
2018-06-03T09:09:08.867Z,26.00
2018-06-03T09:11:36.525Z,26.10
2018-06-03T09:14:04.218Z,26.30
2018-06-03T09:16:31.888Z,26.40
2018-06-03T09:18:59.565Z,26.10
2018-06-03T09:21:27.983Z,26.10
2018-06-03T09:23:55.685Z,26.00
2018-06-03T09:26:23.328Z,26.30
2018-06-03T09:28:51.773Z,26.60
2018-06-03T09:31:19.440Z,26.60
2018-06-03T09:33:47.117Z,26.60
2018-06-03T09:36:14.762Z,26.50
2018-06-03T09:38:42.415Z,26.50
2018-06-03T09:41:10.081Z,26.50
2018-06-03T09:43:37.715Z,26.40
2018-06-03T09:46:05.411Z,26.30
2018-06-03T09:48:33.837Z,25.90
2018-06-03T09:51:01.535Z,25.90
2018-06-03T09:53:29.203Z,25.60
2018-06-03T09:55:56.891Z,25.50
2018-06-03T09:58:24.563Z,25.40
2018-06-03T10:00:52.223Z,25.50
2018-06-03T10:03:19.862Z,25.40
2018-06-03T10:05:48.356Z,25.70
2018-06-03T10:08:15.992Z,25.70
2018-06-03T10:10:43.662Z,25.80
2018-06-03T10:13:12.095Z,26.00
2018-06-03T10:15:39.753Z,26.00
2018-06-03T10:18:07.428Z,26.20
2018-06-03T10:20:35.083Z,26.20
2018-06-03T10:23:02.755Z,26.40
2018-06-03T10:25:30.412Z,26.40
2018-06-03T10:27:58.137Z,26.30
2018-06-03T10:30:25.787Z,26.20
2018-06-03T10:32:53.466Z,26.10
2018-06-03T10:35:21.101Z,26.20
2018-06-03T10:37:48.805Z,26.20
2018-06-03T10:40:16.473Z,26.20
2018-06-03T10:42:44.152Z,26.00
2018-06-03T10:45:12.553Z,26.00
2018-06-03T10:47:40.227Z,26.00
2018-06-03T10:50:07.891Z,26.00
2018-06-03T10:52:35.577Z,26.00
2018-06-03T10:55:03.295Z,26.10
2018-06-03T10:57:30.955Z,26.00
2018-06-03T10:59:58.675Z,25.90
2018-06-03T11:02:26.315Z,25.80
2018-06-03T11:04:53.975Z,25.70
2018-06-03T11:07:21.617Z,25.60
2018-06-03T11:09:49.281Z,25.70
2018-06-03T11:12:16.919Z,25.70
2018-06-03T11:14:44.584Z,25.80
2018-06-03T11:17:12.233Z,25.80
2018-06-03T11:19:39.915Z,25.80
2018-06-03T11:22:08.493Z,25.60
2018-06-03T11:24:36.852Z,25.60
2018-06-03T11:27:04.529Z,25.60
2018-06-03T11:29:32.204Z,25.60
2018-06-03T11:31:59.856Z,25.70
2018-06-03T11:34:27.543Z,25.80
2018-06-03T11:36:55.213Z,25.80
2018-06-03T11:39:22.859Z,25.90
2018-06-03T11:42:21.826Z,25.90
2018-06-03T11:44:51.019Z,25.90
2018-06-03T11:47:20.106Z,25.90
2018-06-03T11:49:49.083Z,25.90
2018-06-03T11:52:18.157Z,25.80
2018-06-03T11:54:47.163Z,25.80
2018-06-03T11:57:16.245Z,25.90
2018-06-03T11:59:45.371Z,26.00
2018-06-03T12:02:18.496Z,26.00
2018-06-03T12:04:47.739Z,26.10
2018-06-03T12:09:45.308Z,26.00
2018-06-03T12:12:14.387Z,26.00
2018-06-03T12:14:43.449Z,26.00
2018-06-03T12:17:12.427Z,26.00
2018-06-03T12:19:41.492Z,26.00
2018-06-03T12:22:10.543Z,26.00
2018-06-03T12:24:39.619Z,25.90
2018-06-03T12:27:08.615Z,26.00
2018-06-03T12:29:37.631Z,26.10
2018-06-03T12:32:06.697Z,26.00
2018-06-03T12:34:35.710Z,25.90
2018-06-03T12:37:04.722Z,26.10
2018-06-03T12:39:33.747Z,26.10
2018-06-03T12:42:02.822Z,26.00
2018-06-03T12:44:31.852Z,25.80
2018-06-03T12:47:00.865Z,25.70
2018-06-03T12:49:29.859Z,25.80
2018-06-03T12:51:58.887Z,25.90
2018-06-03T12:54:27.921Z,25.90
2018-06-03T12:56:56.962Z,26.10
2018-06-03T12:59:25.951Z,26.10
2018-06-03T13:01:55.017Z,26.10
2018-06-03T13:04:24.011Z,26.00
2018-06-03T13:06:53.114Z,26.00
2018-06-03T13:09:22.143Z,25.90
2018-06-03T13:11:51.224Z,25.80
2018-06-03T13:14:20.235Z,25.90
2018-06-03T13:16:49.278Z,26.10
2018-06-03T13:19:18.336Z,26.20
2018-06-03T13:21:47.363Z,26.30
2018-06-03T13:24:16.386Z,26.40
2018-06-03T13:26:45.402Z,26.50
2018-06-03T13:29:14.525Z,26.40
2018-06-03T13:31:43.565Z,26.40
2018-06-03T13:34:12.593Z,26.40
2018-06-03T13:36:41.636Z,26.40
2018-06-03T13:39:10.713Z,26.30
2018-06-03T13:41:39.727Z,26.40
2018-06-03T13:44:08.766Z,26.40
2018-06-03T13:46:37.817Z,26.40
2018-06-03T13:49:06.832Z,26.30
2018-06-03T13:51:35.905Z,26.10
2018-06-03T13:54:04.921Z,26.10
2018-06-03T13:56:33.963Z,26.20
2018-06-03T13:59:03.039Z,26.20
2018-06-03T14:01:32.080Z,26.20
2018-06-03T14:04:01.134Z,26.20
2018-06-03T14:06:30.172Z,26.20
2018-06-03T14:08:59.236Z,26.20
2018-06-03T14:11:28.231Z,26.20
2018-06-03T14:13:57.275Z,26.20
2018-06-03T14:16:26.270Z,26.10
2018-06-03T14:18:55.452Z,26.00
2018-06-03T14:21:24.509Z,26.00
2018-06-03T14:23:53.551Z,25.90
2018-06-03T14:26:22.601Z,25.90
2018-06-03T14:28:51.601Z,26.00
2018-06-03T14:31:20.657Z,26.00
2018-06-03T14:33:49.772Z,25.90
2018-06-03T14:38:47.408Z,25.80
2018-06-03T14:41:16.537Z,25.70
2018-06-03T14:43:45.620Z,25.70
2018-06-03T14:46:14.701Z,25.60
2018-06-03T14:48:43.740Z,25.50
2018-06-03T14:51:12.794Z,25.40
2018-06-03T14:53:41.845Z,25.40
2018-06-03T14:56:10.858Z,25.40
2018-06-03T14:58:40.067Z,25.50
2018-06-03T15:01:09.203Z,25.50
2018-06-03T15:03:38.208Z,25.40
2018-06-03T15:06:07.256Z,25.30
2018-06-03T15:08:36.272Z,25.30
2018-06-03T15:11:05.310Z,25.20
2018-06-03T15:13:34.418Z,25.10
2018-06-03T15:16:03.433Z,25.20
2018-06-03T15:18:32.489Z,25.10
2018-06-03T15:21:01.775Z,25.20
2018-06-03T15:23:30.827Z,25.10
2018-06-03T15:25:59.876Z,25.10
2018-06-03T15:28:28.989Z,25.20
2018-06-03T15:33:26.609Z,25.20
2018-06-03T15:35:55.641Z,25.20
2018-06-03T15:38:24.708Z,25.30
2018-06-03T15:40:54.259Z,25.30
2018-06-03T15:43:23.334Z,25.40
2018-06-03T15:45:52.375Z,25.50
2018-06-03T15:48:21.377Z,25.40
2018-06-03T15:50:50.433Z,25.30
2018-06-03T15:53:19.456Z,25.30
2018-06-03T15:55:48.536Z,25.30
2018-06-03T15:58:17.555Z,25.20
2018-06-03T16:00:46.674Z,25.20
2018-06-03T16:03:16.151Z,25.30
2018-06-03T16:05:45.173Z,25.40
2018-06-03T16:08:14.198Z,25.30
2018-06-03T16:10:43.216Z,25.40
2018-06-03T16:13:12.264Z,25.40
2018-06-03T16:15:41.296Z,25.40
2018-06-03T16:18:10.364Z,25.30
2018-06-03T16:20:39.462Z,25.30
2018-06-03T16:23:08.511Z,25.10
2018-06-03T16:25:37.544Z,25.00
2018-06-03T16:28:06.620Z,25.00
2018-06-03T16:30:35.703Z,24.90
2018-06-03T16:33:04.745Z,24.80
2018-06-03T16:35:33.785Z,24.70
2018-06-03T16:38:02.795Z,24.60
2018-06-03T16:40:31.887Z,24.60
2018-06-03T16:43:00.913Z,24.60
2018-06-03T16:45:29.967Z,24.50
2018-06-03T16:47:59.027Z,24.40
2018-06-03T16:50:28.039Z,24.40
2018-06-03T16:52:57.066Z,24.30
2018-06-03T16:57:54.703Z,24.20
2018-06-03T17:00:23.721Z,24.20
2018-06-03T17:02:52.725Z,24.10
2018-06-03T17:05:21.762Z,24.10
2018-06-03T17:07:50.787Z,24.10
2018-06-03T17:10:19.818Z,24.10
2018-06-03T17:12:48.809Z,24.10
2018-06-03T17:15:17.844Z,24.00
2018-06-03T17:17:46.848Z,24.00
2018-06-03T17:20:15.884Z,24.00
2018-06-03T17:22:44.934Z,24.00
2018-06-03T17:25:14.979Z,24.00
2018-06-03T17:27:44.001Z,24.00
2018-06-03T17:30:13.022Z,24.00
2018-06-03T17:32:42.090Z,24.00
2018-06-03T17:35:11.111Z,24.10
2018-06-03T17:37:40.143Z,24.20
2018-06-03T17:40:09.189Z,24.30
2018-06-03T17:42:38.228Z,24.20
2018-06-03T17:45:07.301Z,24.30
2018-06-03T17:47:36.332Z,24.20
2018-06-03T17:50:05.385Z,24.30
2018-06-03T17:52:34.435Z,24.30
2018-06-03T17:55:03.496Z,24.20
2018-06-03T17:57:32.542Z,24.10
2018-06-03T18:00:01.562Z,24.00
2018-06-03T18:02:30.637Z,24.00
2018-06-03T18:04:59.664Z,23.80
2018-06-03T18:09:57.346Z,23.70
2018-06-03T18:12:26.378Z,23.50
2018-06-03T18:14:55.399Z,23.50
2018-06-03T18:17:24.440Z,23.40
2018-06-03T18:19:53.439Z,23.30
2018-06-03T18:22:22.508Z,23.20
2018-06-03T18:24:51.519Z,23.20
2018-06-03T18:27:20.527Z,23.10
2018-06-03T18:29:49.564Z,23.00
2018-06-03T18:32:18.600Z,22.90
2018-06-03T18:34:47.634Z,22.80
2018-06-03T18:37:16.647Z,22.70
2018-06-03T18:44:42.828Z,22.40
2018-06-03T18:47:11.924Z,22.30
2018-06-03T18:49:40.994Z,22.20
2018-06-03T18:52:10.096Z,22.00
2018-06-03T18:54:39.116Z,22.00
2018-06-03T18:57:08.199Z,21.90
2018-06-03T18:59:37.208Z,21.70
2018-06-03T19:02:06.287Z,21.60
2018-06-03T19:04:35.287Z,21.50
2018-06-03T19:07:04.315Z,21.30
2018-06-03T19:09:33.324Z,21.20
2018-06-03T19:12:02.380Z,21.10
2018-06-03T19:14:31.387Z,20.90
2018-06-03T19:17:00.456Z,20.70
2018-06-03T19:19:29.496Z,20.60
2018-06-03T19:21:58.518Z,20.50
2018-06-03T19:24:27.535Z,20.40
2018-06-03T19:26:56.648Z,20.30
2018-06-03T19:29:25.694Z,20.20
2018-06-03T19:31:54.712Z,20.20
2018-06-03T19:34:23.772Z,20.10
2018-06-03T19:36:52.794Z,20.00
2018-06-03T19:39:21.824Z,19.90
2018-06-03T19:41:50.834Z,19.90
2018-06-03T19:44:19.873Z,19.80
2018-06-03T19:46:48.992Z,19.70
2018-06-03T19:49:18.054Z,19.70
2018-06-03T19:51:50.041Z,19.60
2018-06-03T19:54:19.145Z,19.50
2018-06-03T19:56:48.258Z,19.30
2018-06-03T19:59:17.335Z,19.30
2018-06-03T20:01:47.403Z,19.20
2018-06-03T20:04:17.054Z,19.00
2018-06-03T20:06:46.956Z,19.00
2018-06-03T20:09:16.584Z,18.90
2018-06-03T20:14:16.065Z,18.80
2018-06-03T20:16:45.496Z,18.70
2018-06-03T20:19:14.865Z,18.60
2018-06-03T20:21:44.566Z,18.50
2018-06-03T20:24:15.069Z,18.40
2018-06-03T20:26:44.508Z,18.40
2018-06-03T20:29:13.938Z,18.30
2018-06-03T20:31:43.567Z,18.30
2018-06-03T20:34:13.114Z,18.30
2018-06-03T20:36:42.619Z,18.20
2018-06-03T20:39:12.166Z,18.10
2018-06-03T20:41:41.833Z,18.10
2018-06-03T20:44:11.499Z,18.00
2018-06-03T20:46:41.143Z,17.90
2018-06-03T20:49:10.793Z,17.80
2018-06-03T20:51:40.782Z,17.70
2018-06-03T20:54:10.668Z,17.60
2018-06-03T20:56:40.324Z,17.60
2018-06-03T21:01:38.606Z,17.40
2018-06-03T21:04:08.071Z,17.40
2018-06-03T21:06:37.701Z,17.30
2018-06-03T21:09:09.411Z,17.40
2018-06-03T21:11:38.934Z,17.30
2018-06-03T21:14:08.377Z,17.30
2018-06-03T21:16:37.663Z,17.20
2018-06-03T21:19:07.074Z,17.10
2018-06-03T21:21:36.475Z,17.10
2018-06-03T21:24:05.800Z,17.10
2018-06-03T21:26:35.427Z,17.10
2018-06-03T21:29:04.853Z,17.10
2018-06-03T21:31:34.255Z,17.10
2018-06-03T21:34:03.521Z,17.00
2018-06-03T21:36:32.945Z,17.00
2018-06-03T21:39:02.239Z,17.00
2018-06-03T21:41:31.459Z,16.90
2018-06-03T21:44:00.721Z,16.90
2018-06-03T21:46:30.900Z,16.90
2018-06-03T21:48:59.939Z,16.80
2018-06-03T21:51:28.932Z,16.80
2018-06-03T21:53:58.002Z,16.70
2018-06-03T21:56:26.993Z,16.70
2018-06-03T21:58:56.032Z,16.60
2018-06-03T22:01:25.104Z,16.60
2018-06-03T22:03:54.216Z,16.50
2018-06-03T22:06:23.246Z,16.50
2018-06-03T22:08:52.276Z,16.50
2018-06-03T22:11:21.289Z,16.50
2018-06-03T22:13:50.316Z,16.40
2018-06-03T22:16:19.328Z,16.50
2018-06-03T22:18:48.404Z,16.40
2018-06-03T22:21:17.385Z,16.40
2018-06-03T22:23:46.451Z,16.40
2018-06-03T22:26:15.452Z,16.40
2018-06-03T22:28:44.500Z,16.30
2018-06-03T22:31:13.539Z,16.30
2018-06-03T22:33:42.541Z,16.30
2018-06-03T22:36:11.579Z,16.20
2018-06-03T22:38:40.617Z,16.10
2018-06-03T22:41:09.631Z,16.00
2018-06-03T22:43:39.227Z,16.00
2018-06-03T22:46:08.345Z,15.90
2018-06-03T22:48:37.393Z,15.90
2018-06-03T22:51:06.404Z,15.90
2018-06-03T22:53:35.428Z,15.90
2018-06-03T22:58:42.682Z,15.90
2018-06-03T23:01:11.718Z,15.90
2018-06-03T23:03:40.779Z,15.80
2018-06-03T23:08:45.611Z,15.80
2018-06-03T23:11:14.696Z,15.80
2018-06-03T23:13:43.752Z,15.80
2018-06-03T23:16:12.753Z,15.80
2018-06-03T23:18:42.264Z,15.70
2018-06-03T23:21:11.249Z,15.70
2018-06-03T23:23:40.277Z,15.60
2018-06-03T23:26:09.284Z,15.60
2018-06-03T23:28:38.436Z,15.50
2018-06-03T23:31:07.427Z,15.50
2018-06-03T23:33:36.483Z,15.50
2018-06-03T23:36:05.490Z,15.50
2018-06-03T23:38:34.516Z,15.40
2018-06-03T23:41:03.572Z,15.40
2018-06-03T23:43:32.624Z,15.50
2018-06-03T23:46:01.681Z,15.50
2018-06-03T23:48:30.750Z,15.40
2018-06-03T23:50:59.787Z,15.40
2018-06-03T23:53:28.811Z,15.30
2018-06-03T23:55:57.835Z,15.30
2018-06-03T23:58:26.834Z,15.20
